This is the latest recevied weather packets stored in our database for station/object YO2KCB-10. If no packets are shown the sender has not sent any weather packets the latest 10 day(s).
| Time | Temp. | Humidity | Pressure | Rain* | Wind** | Luminosity | Snow |
|---|---|---|---|---|---|---|---|
| 1777744315 | 17.78° C | 27% | 1018.9 hPa | - | - | - | - |
| 1777743115 | 18.33° C | 27% | 1018.8 hPa | - | - | - | - |
| 1777741915 | 18.89° C | 27% | 1018.6 hPa | - | - | - | - |
| 1777740054 | 20° C | 26% | 1018.6 hPa | - | - | - | - |
| 1777738854 | 20.56° C | 25% | 1018.7 hPa | - | - | - | - |
| 1777737654 | 21.67° C | 25% | 1018.7 hPa | - | - | - | - |
| 1777736454 | 22.22° C | 25% | 1018.9 hPa | - | - | - | - |
| 1777735253 | 23.33° C | 24% | 1018.8 hPa | - | - | - | - |
| 1777734052 | 23.33° C | 24% | 1019 hPa | - | - | - | - |
| 1777732852 | 22.78° C | 24% | 1019.1 hPa | - | - | - | - |
| 1777731652 | 21.67° C | 25% | 1019.1 hPa | - | - | - | - |
| 1777730452 | 21.11° C | 25% | 1019.2 hPa | - | - | - | - |
| 1777729252 | 21.11° C | 26% | 1019.4 hPa | - | - | - | - |
| 1777728052 | 21.67° C | 25% | 1019.4 hPa | - | - | - | - |
| 1777726852 | 21.67° C | 25% | 1019.8 hPa | - | - | - | - |
| 1777725651 | 21.11° C | 26% | 1019.9 hPa | - | - | - | - |
| 1777724451 | 20.56° C | 27% | 1020.1 hPa | - | - | - | - |
| 1777723251 | 20.56° C | 26% | 1020.4 hPa | - | - | - | - |
| 1777722051 | 20.56° C | 27% | 1020.6 hPa | - | - | - | - |
| 1777720851 | 20.56° C | 27% | 1020.7 hPa | - | - | - | - |
| 1777719650 | 20° C | 27% | 1020.9 hPa | - | - | - | - |
| 1777718450 | 19.44° C | 28% | 1021.1 hPa | - | - | - | - |
| 1777717249 | 19.44° C | 28% | 1021.2 hPa | - | - | - | - |
| 1777716048 | 18.89° C | 28% | 1021.4 hPa | - | - | - | - |
| 1777714848 | 17.78° C | 29% | 1021.7 hPa | - | - | - | - |
* Rain since midnight (hover to see other rain measurements)
** Current wind speed in m/s (hover to see current wind gust speed)